createdAt,value
2023-04-17T00:01:01.787Z,14.30
2023-04-17T00:03:31.837Z,14.20
2023-04-17T00:05:59.967Z,14.20
2023-04-17T00:08:27.811Z,14.20
2023-04-17T00:11:09.281Z,14.10
2023-04-17T00:13:43.912Z,14.10
2023-04-17T00:16:14.919Z,14.00
2023-04-17T00:18:45.673Z,13.90
2023-04-17T00:21:13.605Z,14.00
2023-04-17T00:23:47.378Z,14.00
2023-04-17T00:26:16.842Z,14.00
2023-04-17T00:28:50.242Z,14.00
2023-04-17T00:31:21.334Z,14.00
2023-04-17T00:33:51.669Z,14.00
2023-04-17T00:36:22.593Z,13.90
2023-04-17T00:38:50.465Z,13.70
2023-04-17T00:41:22.471Z,13.60
2023-04-17T00:43:50.348Z,13.60
2023-04-17T00:46:18.441Z,13.70
2023-04-17T00:48:46.540Z,13.70
2023-04-17T00:51:20.606Z,13.60
2023-04-17T00:53:49.070Z,13.50
2023-04-17T00:56:19.145Z,13.40
2023-04-17T00:58:49.915Z,13.40
2023-04-17T01:01:23.552Z,13.40
2023-04-17T01:03:55.106Z,13.10
2023-04-17T01:06:27.016Z,13.10
2023-04-17T01:09:07.921Z,13.00
2023-04-17T01:11:39.437Z,13.00
2023-04-17T01:14:15.717Z,13.10
2023-04-17T01:16:46.387Z,12.90
2023-04-17T01:19:15.571Z,12.80
2023-04-17T01:21:46.487Z,12.70
2023-04-17T01:24:15.696Z,12.60
2023-04-17T01:26:52.510Z,12.60
2023-04-17T01:29:26.381Z,12.70
2023-04-17T01:32:00.381Z,12.70
2023-04-17T01:34:28.464Z,12.70
2023-04-17T01:36:56.442Z,12.80
2023-04-17T01:39:28.622Z,12.80
2023-04-17T01:41:56.520Z,12.80
2023-04-17T01:44:24.420Z,12.80
2023-04-17T01:46:52.413Z,12.90
2023-04-17T01:49:27.920Z,12.80
2023-04-17T01:51:55.790Z,12.80
2023-04-17T01:54:25.058Z,12.80
2023-04-17T01:56:53.072Z,12.80
2023-04-17T01:59:40.257Z,12.70
2023-04-17T02:02:11.238Z,12.80
2023-04-17T02:04:39.282Z,12.80
2023-04-17T02:07:07.233Z,12.70
2023-04-17T02:09:36.680Z,12.60
2023-04-17T02:12:10.616Z,12.50
2023-04-17T02:14:40.710Z,12.50
2023-04-17T02:17:08.538Z,12.40
2023-04-17T02:19:36.384Z,12.20
2023-04-17T02:22:10.211Z,12.10
2023-04-17T02:24:51.820Z,12.30
2023-04-17T02:27:19.670Z,12.20
2023-04-17T02:29:50.592Z,12.30
2023-04-17T02:32:36.720Z,12.30
2023-04-17T02:35:23.714Z,12.20
2023-04-17T02:37:51.800Z,12.30
2023-04-17T02:40:27.238Z,12.20
2023-04-17T02:42:55.401Z,12.30
2023-04-17T02:45:25.253Z,12.50
2023-04-17T02:47:58.382Z,12.50
2023-04-17T02:50:31.623Z,12.60
2023-04-17T02:52:59.563Z,12.60
2023-04-17T02:55:28.760Z,12.60
2023-04-17T02:57:56.589Z,12.60
2023-04-17T03:00:28.568Z,12.60
2023-04-17T03:02:59.417Z,12.60
2023-04-17T03:05:33.534Z,12.60
2023-04-17T03:08:01.444Z,12.50
2023-04-17T03:10:30.703Z,12.70
2023-04-17T03:13:03.590Z,12.60
2023-04-17T03:15:39.673Z,12.40
2023-04-17T03:18:13.341Z,12.40
2023-04-17T03:20:41.228Z,12.30
2023-04-17T03:23:12.325Z,12.20
2023-04-17T03:25:49.099Z,12.30
2023-04-17T03:28:21.791Z,12.20
2023-04-17T03:30:57.919Z,12.30
2023-04-17T03:33:25.895Z,12.40
2023-04-17T03:35:58.328Z,12.40
2023-04-17T03:38:34.246Z,12.30
2023-04-17T03:41:10.118Z,12.30
2023-04-17T03:43:46.856Z,12.20
2023-04-17T03:46:15.049Z,12.20
2023-04-17T03:48:45.096Z,12.10
2023-04-17T03:51:13.002Z,12.20
2023-04-17T03:53:47.030Z,12.30
2023-04-17T03:56:24.857Z,12.30
2023-04-17T03:59:04.866Z,12.20
2023-04-17T04:01:33.482Z,12.20
2023-04-17T04:04:01.605Z,12.10
2023-04-17T04:06:32.760Z,12.20
2023-04-17T04:09:03.805Z,12.10
2023-04-17T04:11:45.376Z,12.20
2023-04-17T04:14:16.624Z,12.10
2023-04-17T04:16:47.262Z,12.30
2023-04-17T04:19:27.093Z,12.40
2023-04-17T04:21:55.925Z,12.40
2023-04-17T04:24:26.640Z,12.40
2023-04-17T04:27:04.234Z,12.30
2023-04-17T04:29:32.382Z,12.30
2023-04-17T04:32:01.111Z,12.30
2023-04-17T04:34:29.805Z,12.30
2023-04-17T04:36:57.865Z,12.40
2023-04-17T04:39:25.826Z,12.40
2023-04-17T04:42:06.242Z,12.50
2023-04-17T04:44:43.297Z,12.30
2023-04-17T04:47:11.157Z,12.40
2023-04-17T04:49:39.018Z,12.20
2023-04-17T04:52:10.462Z,12.20
2023-04-17T04:54:43.633Z,12.30
2023-04-17T04:57:24.444Z,12.50
2023-04-17T04:59:58.354Z,12.60
2023-04-17T05:02:26.431Z,12.60
2023-04-17T05:04:54.509Z,12.70
2023-04-17T05:07:22.517Z,12.70
2023-04-17T05:09:53.157Z,13.10
2023-04-17T05:12:44.334Z,13.00
2023-04-17T05:15:27.739Z,13.30
2023-04-17T05:18:01.934Z,13.50
2023-04-17T05:20:29.795Z,13.60
2023-04-17T05:22:57.676Z,13.90
2023-04-17T05:25:25.612Z,13.90
2023-04-17T05:27:57.742Z,14.00
2023-04-17T05:30:28.356Z,14.10
2023-04-17T05:32:56.296Z,14.10
2023-04-17T05:35:27.321Z,14.20
2023-04-17T05:37:56.036Z,14.10
2023-04-17T05:40:24.046Z,14.30
2023-04-17T05:42:51.974Z,14.10
2023-04-17T05:45:29.653Z,13.80
2023-04-17T05:48:00.429Z,13.70
2023-04-17T05:50:28.642Z,13.50
2023-04-17T05:52:56.974Z,13.20
2023-04-17T05:55:27.686Z,13.00
2023-04-17T05:57:58.063Z,12.60
2023-04-17T06:00:40.066Z,12.40
2023-04-17T06:03:08.059Z,12.30
2023-04-17T06:05:36.105Z,12.00
2023-04-17T06:08:06.496Z,12.10
2023-04-17T06:10:37.637Z,12.00
2023-04-17T06:13:10.447Z,12.10
2023-04-17T06:15:42.468Z,12.00
2023-04-17T06:18:15.939Z,11.90
2023-04-17T06:20:53.064Z,11.50
2023-04-17T06:23:21.582Z,11.40
2023-04-17T06:25:52.196Z,11.40
2023-04-17T06:28:20.094Z,11.10
2023-04-17T06:30:49.599Z,10.90
2023-04-17T06:33:26.894Z,10.80
2023-04-17T06:36:02.644Z,10.70
2023-04-17T06:38:33.558Z,10.70
2023-04-17T06:41:07.676Z,10.70
2023-04-17T06:43:38.340Z,10.80
2023-04-17T06:46:10.450Z,10.80
2023-04-17T06:48:38.351Z,10.80
2023-04-17T06:51:09.252Z,10.70
2023-04-17T06:53:46.891Z,10.60
2023-04-17T06:56:15.462Z,10.50
2023-04-17T06:58:46.256Z,10.50
2023-04-17T07:01:17.837Z,10.60
2023-04-17T07:03:45.962Z,10.60
2023-04-17T07:06:13.960Z,10.80
2023-04-17T07:08:41.837Z,10.80
2023-04-17T07:11:10.533Z,10.80
2023-04-17T07:13:47.353Z,10.80
2023-04-17T07:16:27.228Z,10.80
2023-04-17T07:18:55.296Z,10.80
2023-04-17T07:21:23.170Z,10.70
2023-04-17T07:23:51.019Z,10.80
2023-04-17T07:26:28.003Z,10.80
2023-04-17T07:28:55.971Z,10.90
2023-04-17T07:31:25.484Z,11.20
2023-04-17T07:33:56.676Z,11.40
2023-04-17T07:36:25.012Z,11.20
2023-04-17T07:38:56.070Z,11.00
2023-04-17T07:41:23.917Z,10.80
2023-04-17T07:43:59.096Z,10.90
2023-04-17T07:46:31.879Z,10.90
2023-04-17T07:49:02.848Z,10.80
2023-04-17T07:51:31.019Z,10.90
2023-04-17T07:53:58.912Z,11.10
2023-04-17T07:56:28.139Z,11.20
2023-04-17T07:58:56.452Z,11.30
2023-04-17T08:01:27.708Z,11.40
2023-04-17T08:03:58.255Z,11.20
2023-04-17T08:06:26.573Z,11.20
2023-04-17T08:08:56.824Z,11.20
2023-04-17T08:11:30.665Z,11.10
2023-04-17T08:13:58.517Z,11.10
2023-04-17T08:16:26.416Z,11.10
2023-04-17T08:18:54.397Z,11.30
2023-04-17T08:21:26.790Z,11.30
2023-04-17T08:23:57.818Z,11.50
2023-04-17T08:26:28.376Z,11.70
2023-04-17T08:29:01.515Z,11.70
2023-04-17T08:31:36.643Z,11.50
2023-04-17T08:34:13.720Z,11.50
2023-04-17T08:36:44.295Z,11.50
2023-04-17T08:39:16.526Z,11.60
2023-04-17T08:41:54.073Z,11.70
2023-04-17T08:44:22.434Z,11.90
2023-04-17T08:46:54.150Z,12.10
2023-04-17T08:49:22.290Z,12.20
2023-04-17T08:51:51.552Z,12.40
2023-04-17T08:54:21.847Z,12.50
2023-04-17T08:56:50.194Z,12.60
2023-04-17T08:59:27.171Z,12.60
2023-04-17T09:02:02.825Z,12.50
2023-04-17T09:04:42.042Z,12.60
2023-04-17T09:07:13.110Z,12.40
2023-04-17T09:09:54.541Z,12.40
2023-04-17T09:12:26.829Z,12.30
2023-04-17T09:14:54.734Z,12.30
2023-04-17T09:17:22.768Z,12.40
2023-04-17T09:20:07.309Z,12.40
2023-04-17T09:22:38.192Z,12.40
2023-04-17T09:25:17.882Z,12.40
2023-04-17T09:27:49.024Z,12.40
2023-04-17T09:30:26.982Z,12.50
2023-04-17T09:33:05.608Z,12.40
2023-04-17T09:35:39.226Z,12.50
2023-04-17T09:38:09.037Z,12.60
2023-04-17T09:40:46.063Z,12.40
2023-04-17T09:43:23.806Z,12.30
2023-04-17T09:45:52.289Z,12.40
2023-04-17T09:48:20.884Z,12.30
2023-04-17T09:50:49.424Z,12.30
2023-04-17T09:53:21.775Z,12.30
2023-04-17T09:55:53.165Z,12.20
2023-04-17T09:58:23.913Z,12.10
2023-04-17T10:00:52.524Z,12.10
2023-04-17T10:03:21.761Z,12.30
2023-04-17T10:05:49.868Z,12.40
2023-04-17T10:08:17.871Z,12.50
2023-04-17T10:10:52.233Z,12.40
2023-04-17T10:13:29.712Z,12.50
2023-04-17T10:16:03.638Z,12.50
2023-04-17T10:18:34.473Z,12.60
2023-04-17T10:21:21.759Z,12.60
2023-04-17T10:23:49.854Z,12.80
2023-04-17T10:26:45.905Z,12.90
2023-04-17T10:29:39.818Z,13.10
2023-04-17T10:32:19.608Z,13.00
2023-04-17T10:34:47.824Z,12.90
2023-04-17T10:37:16.132Z,13.00
2023-04-17T10:40:01.658Z,13.00
2023-04-17T10:42:32.932Z,13.10
2023-04-17T10:45:05.793Z,13.10
2023-04-17T10:47:35.434Z,13.10
2023-04-17T10:50:05.436Z,13.10
2023-04-17T10:52:44.105Z,13.10
2023-04-17T10:55:17.456Z,13.20
2023-04-17T10:58:02.070Z,13.10
2023-04-17T11:00:33.918Z,13.20
2023-04-17T11:03:03.086Z,13.50
2023-04-17T11:05:35.567Z,13.50
2023-04-17T11:08:08.322Z,13.60
2023-04-17T11:10:37.373Z,13.50
2023-04-17T11:13:06.896Z,13.50
2023-04-17T11:15:36.076Z,13.50
2023-04-17T11:18:07.103Z,13.50
2023-04-17T11:20:42.308Z,13.60
2023-04-17T11:23:13.676Z,13.40
2023-04-17T11:25:41.590Z,13.50
2023-04-17T11:28:13.800Z,13.50
2023-04-17T11:30:44.523Z,13.60
2023-04-17T11:33:13.282Z,13.70
2023-04-17T11:35:42.850Z,13.70
2023-04-17T11:38:17.621Z,13.70
2023-04-17T11:40:51.561Z,13.70
2023-04-17T11:43:21.883Z,13.60
2023-04-17T11:45:51.751Z,13.70
2023-04-17T11:48:23.711Z,13.70
2023-04-17T11:50:56.081Z,13.70
2023-04-17T11:53:24.030Z,13.60
2023-04-17T11:56:13.979Z,13.50
2023-04-17T11:58:53.598Z,13.60
2023-04-17T12:01:24.676Z,13.80
2023-04-17T12:03:53.521Z,13.70
2023-04-17T12:06:37.620Z,13.70
2023-04-17T12:09:07.043Z,13.70
2023-04-17T12:11:35.809Z,13.70
2023-04-17T12:14:12.045Z,13.80
2023-04-17T12:16:42.433Z,13.90
2023-04-17T12:19:17.856Z,14.00
2023-04-17T12:21:52.433Z,14.00
2023-04-17T12:24:21.955Z,14.10
2023-04-17T12:26:58.590Z,14.20
2023-04-17T12:29:40.569Z,14.20
2023-04-17T12:32:11.673Z,14.30
2023-04-17T12:34:39.680Z,14.30
2023-04-17T12:37:07.651Z,14.40
2023-04-17T12:39:35.527Z,14.30
2023-04-17T12:42:03.383Z,14.40
2023-04-17T12:44:35.115Z,14.50
2023-04-17T12:47:05.935Z,14.40
2023-04-17T12:49:33.884Z,14.40
2023-04-17T12:52:04.380Z,14.40
2023-04-17T12:54:32.907Z,14.40
2023-04-17T12:57:01.439Z,14.40
2023-04-17T12:59:29.324Z,14.30
2023-04-17T13:02:04.709Z,14.30
2023-04-17T13:04:32.897Z,14.20
2023-04-17T13:07:13.530Z,14.20
2023-04-17T13:09:49.881Z,14.30
2023-04-17T13:12:17.867Z,14.30
2023-04-17T13:14:45.734Z,14.40
2023-04-17T13:17:16.989Z,14.50
2023-04-17T13:19:45.484Z,14.60
2023-04-17T13:22:13.358Z,14.70
2023-04-17T13:24:41.811Z,14.70
2023-04-17T13:27:10.814Z,14.70
2023-04-17T13:29:41.827Z,14.70
2023-04-17T13:32:20.373Z,14.70
2023-04-17T13:34:51.347Z,14.70
2023-04-17T13:37:22.018Z,14.70
2023-04-17T13:39:49.867Z,14.70
2023-04-17T13:42:17.803Z,14.70
2023-04-17T13:44:45.733Z,14.50
2023-04-17T13:47:14.561Z,14.50
2023-04-17T13:49:43.913Z,14.60
2023-04-17T13:52:14.824Z,14.60
2023-04-17T13:54:49.399Z,14.50
2023-04-17T13:57:18.401Z,14.60
2023-04-17T13:59:46.311Z,14.70
2023-04-17T14:02:25.787Z,14.80
2023-04-17T14:04:55.353Z,14.90
2023-04-17T14:07:32.470Z,15.00
2023-04-17T14:10:02.708Z,15.10
2023-04-17T14:12:30.894Z,15.20
2023-04-17T14:14:58.759Z,15.30
2023-04-17T14:17:29.593Z,15.20
2023-04-17T14:19:58.792Z,15.10
2023-04-17T14:22:26.658Z,15.10
2023-04-17T14:24:54.531Z,15.10
2023-04-17T14:27:22.407Z,15.10
2023-04-17T14:29:59.369Z,15.30
2023-04-17T14:32:28.600Z,15.30
2023-04-17T14:34:57.831Z,15.30
2023-04-17T14:37:25.773Z,15.40
2023-04-17T14:39:53.690Z,15.40
2023-04-17T14:42:23.949Z,15.40
2023-04-17T14:44:57.801Z,15.50
2023-04-17T14:47:33.617Z,15.40
2023-04-17T14:50:03.434Z,15.50
2023-04-17T14:52:31.449Z,15.30
2023-04-17T14:55:01.729Z,15.40
2023-04-17T14:57:34.795Z,15.40
2023-04-17T15:00:03.003Z,15.40
2023-04-17T15:02:38.839Z,15.40
2023-04-17T15:05:09.718Z,15.40
2023-04-17T15:07:37.600Z,15.40
2023-04-17T15:10:14.137Z,15.50
2023-04-17T15:12:46.274Z,15.60
2023-04-17T15:15:19.103Z,15.60
2023-04-17T15:17:56.299Z,15.40
2023-04-17T15:20:43.533Z,15.40
2023-04-17T15:23:15.413Z,15.30
2023-04-17T15:25:45.427Z,15.20
2023-04-17T15:28:16.096Z,15.20
2023-04-17T15:30:43.978Z,15.20
2023-04-17T15:33:19.069Z,15.20
2023-04-17T15:35:48.484Z,15.20
2023-04-17T15:38:16.336Z,15.30
2023-04-17T15:40:44.198Z,15.30
2023-04-17T15:43:12.351Z,15.30
2023-04-17T15:45:40.276Z,15.30
2023-04-17T15:48:08.373Z,15.30
2023-04-17T15:50:36.305Z,15.30
2023-04-17T15:53:05.533Z,15.30
2023-04-17T15:55:37.066Z,15.30
2023-04-17T15:58:17.528Z,15.30
2023-04-17T16:00:54.152Z,15.10
2023-04-17T16:03:22.890Z,15.00
2023-04-17T16:05:52.256Z,14.80
2023-04-17T16:08:25.617Z,14.80
2023-04-17T16:10:53.487Z,14.80
2023-04-17T16:13:21.383Z,14.80
2023-04-17T16:15:50.390Z,14.90
2023-04-17T16:18:18.278Z,15.00
2023-04-17T16:20:49.285Z,15.00
2023-04-17T16:23:45.690Z,15.00
2023-04-17T16:26:16.747Z,15.10
2023-04-17T16:28:47.378Z,15.00
2023-04-17T16:31:17.141Z,15.10
2023-04-17T16:33:58.185Z,15.10
2023-04-17T16:36:28.522Z,15.10
2023-04-17T16:39:08.590Z,15.00
2023-04-17T16:41:41.437Z,15.00
2023-04-17T16:44:09.295Z,15.10
2023-04-17T16:46:55.111Z,15.10
2023-04-17T16:49:28.344Z,15.20
2023-04-17T16:51:56.235Z,15.30
2023-04-17T16:54:33.873Z,15.20
2023-04-17T16:57:11.014Z,15.30
2023-04-17T16:59:41.694Z,15.40
2023-04-17T17:02:13.851Z,15.30
2023-04-17T17:04:46.078Z,15.50
2023-04-17T17:07:14.060Z,15.40
2023-04-17T17:09:43.276Z,15.20
2023-04-17T17:12:11.216Z,15.10
2023-04-17T17:14:41.276Z,15.10
2023-04-17T17:17:11.913Z,15.00
2023-04-17T17:19:45.770Z,15.00
2023-04-17T17:22:13.644Z,15.00
2023-04-17T17:24:45.691Z,15.00
2023-04-17T17:27:14.703Z,14.80
2023-04-17T17:29:42.586Z,14.70
2023-04-17T17:32:10.488Z,14.80
2023-04-17T17:34:38.346Z,14.80
2023-04-17T17:37:06.285Z,14.90
2023-04-17T17:39:36.909Z,15.00
2023-04-17T17:42:08.748Z,15.40
2023-04-17T17:44:37.734Z,15.60
2023-04-17T17:47:07.731Z,15.60
2023-04-17T17:49:47.755Z,15.50
2023-04-17T17:52:17.806Z,15.50
2023-04-17T17:54:45.688Z,15.40
2023-04-17T17:57:14.985Z,15.40
2023-04-17T17:59:48.778Z,15.30
2023-04-17T18:02:16.724Z,15.20
2023-04-17T18:04:47.631Z,15.30
2023-04-17T18:07:15.619Z,15.60
2023-04-17T18:09:43.481Z,15.60
2023-04-17T18:12:11.301Z,15.60
2023-04-17T18:14:45.314Z,15.80
2023-04-17T18:17:13.213Z,15.70
2023-04-17T18:19:42.065Z,15.80
2023-04-17T18:22:10.491Z,15.80
2023-04-17T18:24:38.360Z,15.90
2023-04-17T18:27:09.327Z,16.00
2023-04-17T18:29:37.245Z,16.20
2023-04-17T18:32:06.573Z,16.30
2023-04-17T18:34:34.444Z,16.50
2023-04-17T18:37:02.340Z,16.80
2023-04-17T18:39:30.318Z,17.00
2023-04-17T18:41:58.528Z,17.00
2023-04-17T18:44:29.233Z,17.00
2023-04-17T18:46:57.103Z,17.00
2023-04-17T18:49:32.385Z,16.90
2023-04-17T18:52:00.290Z,16.80
2023-04-17T18:54:31.190Z,16.80
2023-04-17T18:56:59.169Z,16.70
2023-04-17T18:59:43.025Z,16.50
2023-04-17T19:02:13.737Z,16.60
2023-04-17T19:04:45.687Z,16.50
2023-04-17T19:07:16.676Z,16.50
2023-04-17T19:12:33.552Z,16.40
2023-04-17T19:15:04.655Z,16.70
2023-04-17T19:17:38.587Z,16.70
2023-04-17T19:20:11.005Z,16.60
2023-04-17T19:22:39.148Z,16.50
2023-04-17T19:25:14.403Z,16.50
2023-04-17T19:27:45.930Z,16.40
2023-04-17T19:30:19.499Z,16.20
2023-04-17T19:32:50.199Z,16.30
2023-04-17T19:35:19.538Z,16.30
2023-04-17T19:37:56.018Z,16.30
2023-04-17T19:40:26.677Z,16.30
2023-04-17T19:42:56.081Z,16.30
2023-04-17T19:45:27.079Z,16.40
2023-04-17T19:47:57.711Z,16.50
2023-04-17T19:50:30.867Z,16.40
2023-04-17T19:53:09.117Z,16.20
2023-04-17T19:55:41.498Z,16.10
2023-04-17T19:58:09.383Z,15.80
2023-04-17T20:00:43.037Z,15.60
2023-04-17T20:05:54.009Z,15.50
2023-04-17T20:08:27.552Z,15.40
2023-04-17T20:11:00.848Z,15.10
2023-04-17T20:13:31.755Z,15.00
2023-04-17T20:16:02.050Z,14.70
2023-04-17T20:18:29.937Z,14.70
2023-04-17T20:21:12.044Z,14.60
2023-04-17T20:23:43.453Z,14.50
2023-04-17T20:26:12.320Z,14.50
2023-04-17T20:28:40.268Z,14.50
2023-04-17T20:31:11.114Z,14.40
2023-04-17T20:33:44.582Z,14.40
2023-04-17T20:36:29.885Z,14.50
2023-04-17T20:38:57.791Z,14.50
2023-04-17T20:41:26.047Z,14.50
2023-04-17T20:43:58.194Z,14.70
2023-04-17T20:46:31.987Z,14.80
2023-04-17T20:49:05.068Z,14.90
2023-04-17T20:51:45.345Z,14.90
2023-04-17T20:54:13.434Z,14.70
2023-04-17T20:56:41.577Z,14.50
2023-04-17T20:59:09.468Z,14.30
2023-04-17T21:01:37.936Z,14.10
2023-04-17T21:04:10.970Z,14.20
2023-04-17T21:06:43.054Z,14.20
2023-04-17T21:09:13.558Z,14.10
2023-04-17T21:11:41.402Z,13.90
2023-04-17T21:14:09.247Z,13.70
2023-04-17T21:16:41.470Z,13.50
2023-04-17T21:19:09.381Z,13.50
2023-04-17T21:21:44.773Z,13.60
2023-04-17T21:24:15.422Z,13.70
2023-04-17T21:26:43.389Z,13.60
2023-04-17T21:29:17.109Z,13.40
2023-04-17T21:31:59.177Z,13.30
2023-04-17T21:34:35.717Z,13.20
2023-04-17T21:37:07.296Z,13.20
2023-04-17T21:39:38.054Z,13.10
2023-04-17T21:42:09.707Z,12.90
2023-04-17T21:44:40.633Z,12.80
2023-04-17T21:47:11.320Z,12.70
2023-04-17T21:49:39.239Z,12.70
2023-04-17T21:52:08.463Z,12.50
2023-04-17T21:54:39.130Z,12.30
2023-04-17T21:57:12.891Z,12.40
2023-04-17T21:59:40.792Z,12.20
2023-04-17T22:02:08.724Z,12.10
2023-04-17T22:04:36.705Z,12.20
2023-04-17T22:07:09.475Z,12.40
2023-04-17T22:09:40.401Z,12.60
2023-04-17T22:12:12.488Z,12.60
2023-04-17T22:14:46.426Z,12.60
2023-04-17T22:17:16.414Z,12.90
2023-04-17T22:19:47.368Z,13.30
2023-04-17T22:22:16.568Z,13.20
2023-04-17T22:24:44.546Z,13.30
2023-04-17T22:27:12.436Z,13.20
2023-04-17T22:29:43.440Z,13.20
2023-04-17T22:32:11.336Z,13.10
2023-04-17T22:34:41.220Z,13.20
2023-04-17T22:37:13.409Z,13.10
2023-04-17T22:39:58.935Z,13.00
2023-04-17T22:42:26.865Z,12.70
2023-04-17T22:44:57.838Z,12.50
2023-04-17T22:47:34.646Z,12.40
2023-04-17T22:50:02.589Z,12.30
2023-04-17T22:52:33.666Z,12.30
2023-04-17T22:55:06.472Z,12.30
2023-04-17T22:57:34.320Z,12.20
2023-04-17T23:00:02.302Z,12.20
2023-04-17T23:02:33.370Z,12.20
2023-04-17T23:05:03.630Z,12.20
2023-04-17T23:07:37.297Z,12.10
2023-04-17T23:10:21.602Z,12.00
2023-04-17T23:12:49.533Z,11.90
2023-04-17T23:15:21.026Z,11.90
2023-04-17T23:17:48.987Z,12.20
2023-04-17T23:20:20.235Z,12.20
2023-04-17T23:22:54.035Z,12.10
2023-04-17T23:25:23.250Z,12.00
2023-04-17T23:27:53.305Z,11.70
2023-04-17T23:30:21.462Z,11.50
2023-04-17T23:32:59.072Z,11.50
2023-04-17T23:35:33.101Z,11.30
2023-04-17T23:38:01.074Z,11.20
2023-04-17T23:40:34.719Z,11.20
2023-04-17T23:43:02.643Z,11.40
2023-04-17T23:45:33.575Z,11.10
2023-04-17T23:48:01.475Z,11.30
2023-04-17T23:50:29.415Z,11.20
2023-04-17T23:52:59.735Z,11.30
2023-04-17T23:55:27.667Z,11.30
2023-04-17T23:57:58.357Z,11.30
